Time;durP1;ratioP1;P1;durP2;ratioP2;P2;SDS_P1;SDS_P2;PMS_P1;PMS_P2;Temp;Humidity;BMP_temperature;BMP_pressure;BME280_temperature;BME280_humidity;BME280_pressure;Samples;Min_cycle;Max_cycle;Signal;HPM_P1;HPM_P2
2023/03/24 00:00:46;;;;;;;2.72;1.60;;;;;;;;;;6095187;23;20018;-79
2023/03/24 00:03:15;;;;;;;5.97;1.90;;;;;;;;;;6119816;23;20021;-80
2023/03/24 00:05:43;;;;;;;3.65;1.75;;;;;;;;;;6118384;23;20047;-79
2023/03/24 00:08:09;;;;;;;;;;;;;;;;;;6119977;23;20509;-79
2023/03/24 00:10:35;;;;;;;4.95;1.80;;;;;;;;;;6167281;23;19912;-79
2023/03/24 00:13:01;;;;;;;3.30;1.70;;;;;;;;;;6119740;23;20021;-79
2023/03/24 00:15:27;;;;;;;4.07;1.85;;;;;;;;;;6118462;23;20040;-79
2023/03/24 00:17:54;;;;;;;3.47;1.80;;;;;;;;;;6121705;23;20767;-79
2023/03/24 00:20:21;;;;;;;3.90;1.50;;;;;;;;;;6121635;23;20341;-79
2023/03/24 00:22:49;;;;;;;4.20;1.57;;;;;;;;;;6121439;23;20029;-80
2023/03/24 00:25:17;;;;;;;4.10;2.10;;;;;;;;;;6120880;23;20009;-79
2023/03/24 00:27:47;;;;;;;3.03;1.50;;;;;;;;;;6121289;23;20040;-80
2023/03/24 00:30:13;;;;;;;3.92;1.80;;;;;;;;;;6147955;23;20722;-80
2023/03/24 00:32:39;;;;;;;3.75;1.60;;;;;;;;;;6120481;23;20439;-80
2023/03/24 00:35:08;;;;;;;4.55;2.00;;;;;;;;;;6146959;23;20116;-79
2023/03/24 00:37:38;;;;;;;4.65;1.92;;;;;;;;;;6121381;23;20020;-80
2023/03/24 00:40:11;;;;;;;3.70;1.63;;;;;;;;;;6120832;23;20029;-80
2023/03/24 00:42:37;;;;;;;3.63;1.70;;;;;;;;;;6095722;23;20018;-79
2023/03/24 00:45:04;;;;;;;3.13;1.58;;;;;;;;;;6096042;23;20018;-80
2023/03/24 00:47:35;;;;;;;3.30;1.50;;;;;;;;;;6120225;23;20014;-80
2023/03/24 00:50:05;;;;;;;3.78;1.70;;;;;;;;;;6120749;23;20018;-80
2023/03/24 00:52:32;;;;;;;3.35;1.63;;;;;;;;;;6146415;23;20108;-80
2023/03/24 00:55:00;;;;;;;4.50;1.63;;;;;;;;;;6146467;23;20075;-80
2023/03/24 00:57:28;;;;;;;;;;;;;;;;;;6120642;23;20440;-79
2023/03/24 00:59:54;;;;;;;5.18;1.85;;;;;;;;;;6120011;23;20319;-80
2023/03/24 01:02:23;;;;;;;3.03;1.58;;;;;;;;;;6120425;23;20018;-80
2023/03/24 01:04:56;;;;;;;2.63;1.50;;;;;;;;;;6096627;23;20012;-80
2023/03/24 01:07:23;;;;;;;3.20;1.50;;;;;;;;;;6120195;23;20021;-79
2023/03/24 01:09:58;;;;;;;2.90;1.40;;;;;;;;;;6097254;23;20095;-79
2023/03/24 01:12:24;;;;;;;2.63;1.40;;;;;;;;;;6096869;23;20013;-79
2023/03/24 01:14:51;;;;;;;3.13;1.58;;;;;;;;;;6121121;23;20362;-80
2023/03/24 01:17:18;;;;;;;4.00;1.87;;;;;;;;;;6119531;23;20020;-80
2023/03/24 01:19:44;;;;;;;3.47;1.63;;;;;;;;;;6120508;23;20245;-79
2023/03/24 01:22:09;;;;;;;3.10;1.50;;;;;;;;;;6120555;23;20088;-80
2023/03/24 01:24:35;;;;;;;3.78;1.90;;;;;;;;;;6119798;23;20064;-81
2023/03/24 01:27:01;;;;;;;3.50;1.70;;;;;;;;;;6120347;23;20463;-78
2023/03/24 01:29:27;;;;;;;3.80;1.45;;;;;;;;;;6118991;23;20439;-81
2023/03/24 01:31:52;;;;;;;3.97;1.80;;;;;;;;;;6095560;23;20084;-80
2023/03/24 01:34:18;;;;;;;2.80;1.65;;;;;;;;;;6146795;23;20044;-80
2023/03/24 01:36:43;;;;;;;2.75;1.40;;;;;;;;;;6145990;23;20075;-80
2023/03/24 01:39:09;;;;;;;2.83;1.50;;;;;;;;;;6118848;23;20452;-80
2023/03/24 01:41:36;;;;;;;2.78;1.52;;;;;;;;;;6119280;23;20032;-80
2023/03/24 01:44:30;;;;;;;3.00;1.50;;;;;;;;;;6095649;23;20016;-81
2023/03/24 01:46:56;;;;;;;2.63;1.42;;;;;;;;;;6118987;23;20104;-80
2023/03/24 01:49:23;;;;;;;3.55;1.70;;;;;;;;;;6120322;23;20045;-81
2023/03/24 01:51:52;;;;;;;3.80;1.85;;;;;;;;;;6146060;23;20013;-80
2023/03/24 01:54:22;;;;;;;4.85;1.98;;;;;;;;;;6120607;23;20041;-80
2023/03/24 01:57:05;;;;;;;3.35;1.60;;;;;;;;;;6119734;23;20040;-80
2023/03/24 01:59:33;;;;;;;2.92;1.35;;;;;;;;;;6094976;23;20033;-80
2023/03/24 02:02:02;;;;;;;3.50;1.60;;;;;;;;;;6120256;23;20437;-81
2023/03/24 02:04:33;;;;;;;3.28;1.63;;;;;;;;;;6120000;23;20085;-81
2023/03/24 02:07:07;;;;;;;3.28;1.70;;;;;;;;;;6119598;23;20530;-81
2023/03/24 02:09:32;;;;;;;3.05;1.63;;;;;;;;;;6117766;23;20422;-82
2023/03/24 02:11:59;;;;;;;2.75;1.40;;;;;;;;;;6119338;23;20018;-81
2023/03/24 02:14:25;;;;;;;3.42;1.70;;;;;;;;;;6120095;23;20029;-80
2023/03/24 02:16:57;;;;;;;4.47;1.75;;;;;;;;;;6095639;23;20017;-80
2023/03/24 02:19:43;;;;;;;4.53;1.77;;;;;;;;;;6145733;23;20009;-80
2023/03/24 02:22:46;;;;;;;3.13;1.60;;;;;;;;;;6119248;23;20018;-80
2023/03/24 02:25:15;;;;;;;2.88;1.50;;;;;;;;;;6145079;23;20021;-80
2023/03/24 02:28:12;;;;;;;3.97;1.50;;;;;;;;;;6146266;23;20013;-80
2023/03/24 02:31:00;;;;;;;3.20;1.65;;;;;;;;;;6121540;23;20359;-80
2023/03/24 02:33:34;;;;;;;4.68;1.83;;;;;;;;;;6120272;23;20479;-81
2023/03/24 02:36:28;;;;;;;3.97;1.75;;;;;;;;;;6145246;23;20057;-80
2023/03/24 02:39:24;;;;;;;3.75;1.70;;;;;;;;;;6145192;23;20459;-80
2023/03/24 02:42:02;;;;;;;4.30;1.63;;;;;;;;;;6144703;23;20024;-80
2023/03/24 02:45:04;;;;;;;2.75;1.52;;;;;;;;;;6120154;23;20021;-80
2023/03/24 02:47:41;;;;;;;3.22;1.55;;;;;;;;;;6145370;23;20033;-80
2023/03/24 02:50:25;;;;;;;3.08;1.83;;;;;;;;;;6119437;23;20017;-80
2023/03/24 02:53:12;;;;;;;3.15;1.67;;;;;;;;;;6119654;23;20029;-78
2023/03/24 02:56:00;;;;;;;3.00;1.55;;;;;;;;;;6118846;23;20045;-78
2023/03/24 02:58:34;;;;;;;3.45;1.75;;;;;;;;;;6144514;23;20020;-78
2023/03/24 03:01:12;;;;;;;4.82;2.00;;;;;;;;;;6118979;23;20491;-81
2023/03/24 03:03:42;;;;;;;4.40;1.92;;;;;;;;;;6146089;23;20458;-81
2023/03/24 03:06:13;;;;;;;3.95;1.85;;;;;;;;;;6118144;23;20021;-79
2023/03/24 03:08:40;;;;;;;3.70;1.85;;;;;;;;;;6095022;23;20017;-79
2023/03/24 03:11:13;;;;;;;3.67;2.00;;;;;;;;;;6080084;23;20422;-78
2023/03/24 03:13:43;;;;;;;3.10;1.73;;;;;;;;;;6094950;23;20096;-78
2023/03/24 03:16:15;;;;;;;4.25;2.00;;;;;;;;;;6094103;23;20021;-79
2023/03/24 03:19:10;;;;;;;5.07;2.00;;;;;;;;;;6095127;23;25050;-79
2023/03/24 03:21:39;;;;;;;7.00;2.28;;;;;;;;;;6141717;23;20025;-80
2023/03/24 03:24:09;;;;;;;4.45;1.88;;;;;;;;;;6094791;23;20025;-80
2023/03/24 03:26:35;;;;;;;5.25;2.13;;;;;;;;;;6145519;23;20503;-79
2023/03/24 03:29:06;;;;;;;4.45;2.15;;;;;;;;;;6119584;23;20020;-79
2023/03/24 03:31:49;;;;;;;5.38;2.00;;;;;;;;;;6094490;23;20029;-79
2023/03/24 03:34:27;;;;;;;3.28;1.67;;;;;;;;;;6095484;23;20014;-80
2023/03/24 03:37:04;;;;;;;;;;;;;;;;;;6145074;23;20017;-79
2023/03/24 03:39:32;;;;;;;3.42;1.80;;;;;;;;;;6119107;23;19940;-79
2023/03/24 03:41:57;;;;;;;;;;;;;;;;;;6119114;23;20036;-79
2023/03/24 03:44:24;;;;;;;3.75;1.92;;;;;;;;;;6145138;23;20363;-80
2023/03/24 03:46:49;;;;;;;3.97;2.20;;;;;;;;;;6119898;23;20017;-80
2023/03/24 03:49:15;;;;;;;3.42;1.80;;;;;;;;;;6120149;23;20424;-79
2023/03/24 03:51:40;;;;;;;3.97;1.95;;;;;;;;;;6119637;23;20021;-80
2023/03/24 03:54:09;;;;;;;3.55;2.00;;;;;;;;;;6121928;23;20041;-79
2023/03/24 03:56:36;;;;;;;4.25;2.15;;;;;;;;;;6120859;23;20037;-79
2023/03/24 03:59:03;;;;;;;5.40;2.35;;;;;;;;;;6147233;23;20456;-79
2023/03/24 04:01:30;;;;;;;4.93;2.30;;;;;;;;;;6120859;23;20062;-80
2023/03/24 04:04:19;;;;;;;6.50;2.35;;;;;;;;;;6096725;23;20048;-80
2023/03/24 04:07:07;;;;;;;4.90;2.38;;;;;;;;;;6119949;23;20017;-78
2023/03/24 04:10:00;;;;;;;3.95;2.35;;;;;;;;;;6120619;23;20463;-78
2023/03/24 04:12:41;;;;;;;4.72;2.40;;;;;;;;;;6147110;23;20017;-78
2023/03/24 04:15:22;;;;;;;4.40;2.58;;;;;;;;;;6120733;23;20097;-79
2023/03/24 04:18:02;;;;;;;5.05;2.70;;;;;;;;;;6147573;23;20371;-79
2023/03/24 04:20:45;;;;;;;4.45;2.65;;;;;;;;;;6119734;23;20021;-79
2023/03/24 04:23:27;;;;;;;4.28;2.50;;;;;;;;;;6098057;23;20021;-79
2023/03/24 04:26:04;;;;;;;5.18;2.75;;;;;;;;;;6119629;23;20027;-78
2023/03/24 04:29:24;;;;;;;5.97;2.75;;;;;;;;;;6121633;23;20024;-78
2023/03/24 04:31:53;;;;;;;7.82;3.03;;;;;;;;;;6098537;23;20081;-78
2023/03/24 04:34:32;;;;;;;4.28;2.42;;;;;;;;;;6121223;23;20022;-79
2023/03/24 04:37:13;;;;;;;7.70;3.13;;;;;;;;;;6095470;23;20029;-79
2023/03/24 04:39:42;;;;;;;4.30;2.40;;;;;;;;;;6120414;23;20132;-79
2023/03/24 04:42:16;;;;;;;5.03;2.72;;;;;;;;;;6119562;23;20063;-79
2023/03/24 04:44:42;;;;;;;6.25;2.92;;;;;;;;;;6121614;23;20025;-78
2023/03/24 04:47:09;;;;;;;4.25;2.67;;;;;;;;;;6121007;23;20021;-78
2023/03/24 04:49:38;;;;;;;6.32;3.00;;;;;;;;;;6096482;23;20080;-78
2023/03/24 04:52:05;;;;;;;5.53;2.88;;;;;;;;;;6120146;23;20037;-78
2023/03/24 04:54:33;;;;;;;4.03;2.38;;;;;;;;;;6120308;23;20085;-78
2023/03/24 04:57:00;;;;;;;5.13;2.78;;;;;;;;;;6120106;23;20459;-79
2023/03/24 04:59:27;;;;;;;4.43;2.50;;;;;;;;;;6120636;23;20021;-79
2023/03/24 05:01:53;;;;;;;11.30;3.23;;;;;;;;;;6146725;23;20044;-80
2023/03/24 05:04:21;;;;;;;6.15;2.90;;;;;;;;;;6146929;23;20096;-79
2023/03/24 05:06:48;;;;;;;5.85;2.83;;;;;;;;;;6146390;23;20379;-79
2023/03/24 05:09:14;;;;;;;4.93;2.90;;;;;;;;;;6146378;23;20013;-81
2023/03/24 05:11:39;;;;;;;5.63;2.75;;;;;;;;;;6120110;23;20064;-81
2023/03/24 05:14:05;;;;;;;5.70;2.80;;;;;;;;;;6096174;23;20033;-81
2023/03/24 05:16:30;;;;;;;4.85;2.47;;;;;;;;;;6119611;23;20026;-82
2023/03/24 05:18:56;;;;;;;6.80;2.70;;;;;;;;;;6120598;23;20320;-82
2023/03/24 05:21:21;;;;;;;5.30;2.80;;;;;;;;;;6094977;23;20403;-81
2023/03/24 05:23:46;;;;;;;5.88;2.88;;;;;;;;;;6147833;23;20436;-82
2023/03/24 05:26:12;;;;;;;5.22;3.00;;;;;;;;;;6144905;23;20025;-83
2023/03/24 05:28:37;;;;;;;5.72;2.90;;;;;;;;;;6120791;23;20451;-82
2023/03/24 05:31:03;;;;;;;5.45;2.58;;;;;;;;;;6146050;23;20018;-83
2023/03/24 05:33:29;;;;;;;4.85;2.63;;;;;;;;;;6085392;23;20653;-82
2023/03/24 05:35:54;;;;;;;4.85;2.50;;;;;;;;;;6095481;23;20040;-82
2023/03/24 05:38:20;;;;;;;5.03;2.85;;;;;;;;;;6147625;23;20391;-82
2023/03/24 05:40:45;;;;;;;4.88;2.53;;;;;;;;;;6146333;23;20013;-82
2023/03/24 05:43:11;;;;;;;4.28;2.50;;;;;;;;;;6120542;23;20435;-81
2023/03/24 05:45:37;;;;;;;5.63;2.50;;;;;;;;;;6118869;23;20016;-80
2023/03/24 05:48:03;;;;;;;5.40;2.63;;;;;;;;;;6146416;23;20129;-80
2023/03/24 05:50:28;;;;;;;4.68;2.33;;;;;;;;;;6119464;23;20036;-81
2023/03/24 05:52:53;;;;;;;4.70;2.50;;;;;;;;;;6119289;23;20017;-81
2023/03/24 05:55:20;;;;;;;4.45;2.20;;;;;;;;;;6095629;23;20333;-81
2023/03/24 05:57:46;;;;;;;4.47;2.47;;;;;;;;;;6095143;23;20017;-81
2023/03/24 06:00:15;;;;;;;4.97;2.72;;;;;;;;;;6120289;23;20338;-81
2023/03/24 06:02:41;;;;;;;5.30;2.83;;;;;;;;;;6145153;23;20018;-81
2023/03/24 06:05:08;;;;;;;5.18;2.30;;;;;;;;;;6145128;23;20018;-81
2023/03/24 06:07:35;;;;;;;4.27;2.30;;;;;;;;;;6146291;23;20018;-81
2023/03/24 06:10:03;;;;;;;4.53;2.40;;;;;;;;;;6092636;23;20463;-81
2023/03/24 06:12:29;;;;;;;3.95;2.35;;;;;;;;;;6145622;23;20343;-80
2023/03/24 06:14:56;;;;;;;4.18;2.17;;;;;;;;;;6120133;23;20526;-83
2023/03/24 06:17:23;;;;;;;3.92;2.30;;;;;;;;;;6096406;23;20076;-83
2023/03/24 06:19:49;;;;;;;4.05;2.28;;;;;;;;;;6095854;23;20517;-84
2023/03/24 06:22:18;;;;;;;4.30;2.13;;;;;;;;;;6145375;23;20014;-84
2023/03/24 06:24:44;;;;;;;4.30;2.25;;;;;;;;;;6120406;23;20075;-84
2023/03/24 06:27:10;;;;;;;4.70;2.53;;;;;;;;;;6095068;23;20347;-84
2023/03/24 06:29:35;;;;;;;5.22;2.33;;;;;;;;;;6146714;23;20017;-83
2023/03/24 06:32:02;;;;;;;4.10;2.10;;;;;;;;;;6119346;23;20345;-83
2023/03/24 06:34:28;;;;;;;3.92;2.08;;;;;;;;;;6095597;23;20017;-84
2023/03/24 06:36:54;;;;;;;4.63;2.13;;;;;;;;;;6145593;23;20097;-84
2023/03/24 06:39:20;;;;;;;3.90;2.17;;;;;;;;;;6146551;23;20080;-84
2023/03/24 06:41:45;;;;;;;3.55;2.03;;;;;;;;;;6119944;23;20014;-85
2023/03/24 06:44:11;;;;;;;4.13;2.33;;;;;;;;;;6119976;23;20052;-84
2023/03/24 06:46:36;;;;;;;4.28;2.10;;;;;;;;;;6095939;23;20399;-84
2023/03/24 06:49:02;;;;;;;5.03;2.22;;;;;;;;;;6120035;23;20018;-84
2023/03/24 06:51:28;;;;;;;3.88;2.15;;;;;;;;;;6120768;23;20028;-84
2023/03/24 06:53:54;;;;;;;7.10;2.40;;;;;;;;;;6117161;23;20017;-81
2023/03/24 06:56:20;;;;;;;4.85;2.47;;;;;;;;;;6092052;23;20018;-81
2023/03/24 06:58:46;;;;;;;3.67;1.83;;;;;;;;;;6119769;23;20020;-84
2023/03/24 07:01:11;;;;;;;4.70;2.30;;;;;;;;;;6093597;23;20321;-84
2023/03/24 07:03:37;;;;;;;3.80;2.00;;;;;;;;;;6146634;23;20013;-84
2023/03/24 07:06:04;;;;;;;4.78;2.55;;;;;;;;;;6118830;23;20474;-83
2023/03/24 07:08:30;;;;;;;4.68;2.30;;;;;;;;;;6095469;23;20657;-84
2023/03/24 07:10:55;;;;;;;5.15;2.45;;;;;;;;;;6094869;23;20021;-83
2023/03/24 07:13:21;;;;;;;3.65;1.88;;;;;;;;;;6120579;23;20756;-82
2023/03/24 07:15:46;;;;;;;4.55;2.20;;;;;;;;;;6144637;23;20104;-84
2023/03/24 07:18:12;;;;;;;4.78;2.22;;;;;;;;;;6145915;23;20044;-84
2023/03/24 07:20:39;;;;;;;4.45;2.05;;;;;;;;;;6093816;23;20494;-83
2023/03/24 07:23:05;;;;;;;3.90;2.00;;;;;;;;;;6120770;23;20094;-84
2023/03/24 07:25:30;;;;;;;4.15;2.15;;;;;;;;;;6118458;23;20653;-85
2023/03/24 07:27:55;;;;;;;4.55;2.22;;;;;;;;;;6146149;23;20048;-84
2023/03/24 07:30:22;;;;;;;5.25;2.30;;;;;;;;;;6119958;23;20033;-82
2023/03/24 07:32:48;;;;;;;4.13;2.13;;;;;;;;;;6120426;23;20448;-84
2023/03/24 07:35:15;;;;;;;4.13;2.08;;;;;;;;;;6119358;23;20136;-83
2023/03/24 07:37:41;;;;;;;4.55;2.20;;;;;;;;;;6120802;23;20025;-83
2023/03/24 07:40:10;;;;;;;4.57;2.40;;;;;;;;;;6119311;23;20025;-82
2023/03/24 07:42:37;;;;;;;5.05;2.08;;;;;;;;;;6120639;23;20455;-82
2023/03/24 07:45:04;;;;;;;5.45;2.13;;;;;;;;;;6109122;23;20025;-83
2023/03/24 07:47:30;;;;;;;4.43;2.30;;;;;;;;;;6094728;23;20037;-83
2023/03/24 07:49:56;;;;;;;5.00;2.30;;;;;;;;;;6095886;23;20024;-83
2023/03/24 07:52:21;;;;;;;4.60;2.25;;;;;;;;;;6120201;23;20109;-84
2023/03/24 07:54:46;;;;;;;4.00;2.05;;;;;;;;;;6119261;23;20080;-83
2023/03/24 07:57:12;;;;;;;4.82;2.20;;;;;;;;;;6095294;23;20418;-83
2023/03/24 07:59:37;;;;;;;4.95;2.63;;;;;;;;;;6118756;23;20082;-84
2023/03/24 08:02:03;;;;;;;4.90;2.38;;;;;;;;;;6118082;23;20108;-82
2023/03/24 08:04:28;;;;;;;5.88;2.80;;;;;;;;;;6144876;23;20448;-82
2023/03/24 08:06:54;;;;;;;5.15;2.72;;;;;;;;;;6118812;23;20018;-84
2023/03/24 08:09:20;;;;;;;5.68;2.72;;;;;;;;;;6119773;23;20020;-83
2023/03/24 08:11:52;;;;;;;6.68;3.03;;;;;;;;;;6144188;23;20475;-82
2023/03/24 08:14:17;;;;;;;8.93;2.75;;;;;;;;;;6119624;23;20025;-84
2023/03/24 08:16:44;;;;;;;6.20;3.00;;;;;;;;;;6119359;23;20017;-84
2023/03/24 08:19:10;;;;;;;6.60;2.88;;;;;;;;;;6144928;23;20018;-84
2023/03/24 08:21:35;;;;;;;4.35;2.28;;;;;;;;;;6118291;23;20538;-83
2023/03/24 08:24:01;;;;;;;4.70;2.50;;;;;;;;;;6119519;23;20022;-83
2023/03/24 08:26:26;;;;;;;5.18;2.75;;;;;;;;;;6118760;23;20440;-83
2023/03/24 08:28:52;;;;;;;5.28;2.88;;;;;;;;;;6146390;23;20079;-83
2023/03/24 08:31:18;;;;;;;4.85;2.50;;;;;;;;;;6119469;23;20408;-82
2023/03/24 08:33:44;;;;;;;4.82;2.63;;;;;;;;;;6119596;23;20018;-85
2023/03/24 08:36:09;;;;;;;4.93;2.60;;;;;;;;;;6117470;23;20018;-83
2023/03/24 08:38:37;;;;;;;4.85;2.67;;;;;;;;;;6121013;23;20021;-78
2023/03/24 08:41:05;;;;;;;5.95;2.55;;;;;;;;;;6145506;23;20025;-78
2023/03/24 08:43:31;;;;;;;;;;;;;;;;;;6120792;23;20017;-77
2023/03/24 08:45:57;;;;;;;5.30;2.60;;;;;;;;;;6168520;23;20329;-78
2023/03/24 08:48:23;;;;;;;5.20;2.60;;;;;;;;;;6145469;23;20022;-79
2023/03/24 08:50:48;;;;;;;6.07;2.53;;;;;;;;;;6119600;23;20017;-77
2023/03/24 08:53:14;;;;;;;5.07;2.47;;;;;;;;;;6146331;23;20335;-78
2023/03/24 08:55:42;;;;;;;5.05;2.83;;;;;;;;;;6118877;23;20022;-78
2023/03/24 08:58:09;;;;;;;;;;;;;;;;;;6120464;23;20108;-78
2023/03/24 09:00:34;;;;;;;4.65;2.53;;;;;;;;;;6167940;23;19986;-78
2023/03/24 09:03:00;;;;;;;4.57;2.40;;;;;;;;;;6146500;23;20013;-78
2023/03/24 09:05:26;;;;;;;7.95;2.67;;;;;;;;;;6145038;23;20017;-78
2023/03/24 09:07:52;;;;;;;3.65;2.13;;;;;;;;;;6147191;23;20092;-78
2023/03/24 09:10:18;;;;;;;5.22;2.40;;;;;;;;;;6093951;23;20395;-78
2023/03/24 09:12:45;;;;;;;4.18;2.25;;;;;;;;;;6146170;23;20105;-81
2023/03/24 09:15:12;;;;;;;5.05;2.45;;;;;;;;;;6145487;23;20017;-83
2023/03/24 09:17:41;;;;;;;4.45;2.35;;;;;;;;;;6146551;23;20451;-83
2023/03/24 09:20:10;;;;;;;5.03;2.45;;;;;;;;;;6146095;23;20022;-82
2023/03/24 09:22:40;;;;;;;4.90;2.38;;;;;;;;;;6119736;23;20017;-83
2023/03/24 09:25:06;;;;;;;3.90;2.00;;;;;;;;;;6145879;23;20711;-82
2023/03/24 09:27:32;;;;;;;4.30;2.55;;;;;;;;;;6130599;23;20459;-83
2023/03/24 09:30:00;;;;;;;5.63;2.35;;;;;;;;;;6118705;23;20025;-83
2023/03/24 09:32:25;;;;;;;3.63;1.90;;;;;;;;;;6117970;23;20030;-83
2023/03/24 09:34:51;;;;;;;4.13;2.05;;;;;;;;;;6130754;23;20017;-82
2023/03/24 09:37:16;;;;;;;4.75;2.47;;;;;;;;;;6143936;23;20021;-83
2023/03/24 09:39:42;;;;;;;4.60;2.08;;;;;;;;;;6130066;23;20033;-83
2023/03/24 09:42:17;;;;;;;4.22;2.30;;;;;;;;;;6118573;23;20049;-82
2023/03/24 09:44:46;;;;;;;4.32;2.20;;;;;;;;;;6144246;23;20383;-82
2023/03/24 09:47:30;;;;;;;4.13;2.13;;;;;;;;;;6094367;23;20075;-82
2023/03/24 09:50:20;;;;;;;3.90;2.10;;;;;;;;;;6118015;23;20025;-81
2023/03/24 09:52:49;;;;;;;3.60;1.88;;;;;;;;;;6093271;23;20033;-81
2023/03/24 09:55:20;;;;;;;3.88;1.80;;;;;;;;;;6118627;23;20013;-81
2023/03/24 09:57:47;;;;;;;3.85;1.83;;;;;;;;;;6145866;23;20448;-81
2023/03/24 10:00:26;;;;;;;3.53;1.67;;;;;;;;;;6118899;23;20026;-76
2023/03/24 10:02:55;;;;;;;3.83;1.88;;;;;;;;;;6118919;23;20037;-81
2023/03/24 10:05:26;;;;;;;3.75;2.05;;;;;;;;;;6120404;23;20028;-81
2023/03/24 10:08:14;;;;;;;4.72;1.98;;;;;;;;;;6094863;23;20017;-81
2023/03/24 10:11:10;;;;;;;3.15;1.73;;;;;;;;;;6144932;23;20117;-80
2023/03/24 10:13:53;;;;;;;3.17;1.58;;;;;;;;;;6121121;23;20381;-77
2023/03/24 10:16:56;;;;;;;3.63;1.95;;;;;;;;;;6145243;23;20017;-80
2023/03/24 10:19:29;;;;;;;3.63;1.70;;;;;;;;;;6119815;23;20080;-81
2023/03/24 10:22:09;;;;;;;3.22;1.75;;;;;;;;;;6144835;23;20031;-81
2023/03/24 10:24:41;;;;;;;3.88;1.95;;;;;;;;;;6119464;23;20033;-82
2023/03/24 10:27:16;;;;;;;4.63;2.10;;;;;;;;;;6118414;23;20028;-81
2023/03/24 10:29:44;;;;;;;3.83;1.75;;;;;;;;;;6118575;23;20080;-82
2023/03/24 10:32:38;;;;;;;3.92;1.75;;;;;;;;;;6143634;23;20021;-82
2023/03/24 10:35:08;;;;;;;3.33;1.58;;;;;;;;;;6001070;23;20495;-83
2023/03/24 10:37:35;;;;;;;3.05;1.60;;;;;;;;;;6027073;23;20408;-83
2023/03/24 10:40:00;;;;;;;3.25;1.65;;;;;;;;;;6026762;23;20030;-82
2023/03/24 10:42:30;;;;;;;4.80;1.63;;;;;;;;;;6025039;23;20282;-82
2023/03/24 10:44:56;;;;;;;2.65;1.35;;;;;;;;;;6001401;23;20027;-80
2023/03/24 10:47:24;;;;;;;3.30;1.45;;;;;;;;;;6048700;23;20512;-82
2023/03/24 10:49:59;;;;;;;3.70;1.60;;;;;;;;;;6049340;23;20027;-81
2023/03/24 10:52:25;;;;;;;2.92;1.48;;;;;;;;;;6000816;23;20706;-81
2023/03/24 10:55:02;;;;;;;2.85;1.33;;;;;;;;;;6026606;23;20086;-80
2023/03/24 10:57:28;;;;;;;2.95;1.52;;;;;;;;;;6025478;23;20101;-80
2023/03/24 10:59:57;;;;;;;4.05;1.35;;;;;;;;;;6026289;23;20207;-81
2023/03/24 11:02:23;;;;;;;2.50;1.13;;;;;;;;;;6048070;23;20023;-80
2023/03/24 11:04:56;;;;;;;2.90;1.45;;;;;;;;;;6050619;23;20031;-81
2023/03/24 11:07:22;;;;;;;4.00;1.30;;;;;;;;;;6003216;23;20082;-80
2023/03/24 11:10:20;;;;;;;3.30;1.60;;;;;;;;;;6026346;23;20585;-81
2023/03/24 11:12:54;;;;;;;;;;;;;;;;;;6068863;23;20371;-80
2023/03/24 11:15:27;;;;;;;4.30;1.42;;;;;;;;;;6144634;23;19915;-80
2023/03/24 11:18:11;;;;;;;3.17;1.35;;;;;;;;;;6119678;23;20017;-80
2023/03/24 11:20:51;;;;;;;3.00;1.40;;;;;;;;;;6117835;23;20025;-81
2023/03/24 11:23:30;;;;;;;2.83;0.90;;;;;;;;;;6119863;23;20390;-81
2023/03/24 11:26:07;;;;;;;1.98;1.00;;;;;;;;;;6117688;23;20017;-81
2023/03/24 11:28:38;;;;;;;2.17;0.90;;;;;;;;;;6119292;23;20021;-81
2023/03/24 11:31:09;;;;;;;2.15;1.10;;;;;;;;;;6093861;23;20018;-81
2023/03/24 11:33:42;;;;;;;3.13;1.38;;;;;;;;;;6094182;23;20013;-81
2023/03/24 11:36:29;;;;;;;2.53;1.25;;;;;;;;;;6117832;23;20021;-81
2023/03/24 11:39:25;;;;;;;2.70;0.95;;;;;;;;;;6143420;23;20052;-80
2023/03/24 11:42:09;;;;;;;2.58;1.20;;;;;;;;;;6110409;23;20030;-80
2023/03/24 11:44:37;;;;;;;4.40;1.02;;;;;;;;;;6088979;23;20026;-81
2023/03/24 11:47:23;;;;;;;2.33;1.00;;;;;;;;;;6101705;23;20085;-80
2023/03/24 11:50:07;;;;;;;1.73;0.80;;;;;;;;;;6118166;23;20032;-79
2023/03/24 11:52:47;;;;;;;2.15;0.98;;;;;;;;;;6117881;23;20082;-78
2023/03/24 11:55:18;;;;;;;2.60;1.00;;;;;;;;;;6089827;23;20038;-78
2023/03/24 11:58:03;;;;;;;2.10;0.82;;;;;;;;;;6091590;23;20407;-79
2023/03/24 12:00:40;;;;;;;2.85;0.90;;;;;;;;;;6114357;23;20460;-80
2023/03/24 12:03:27;;;;;;;4.07;1.13;;;;;;;;;;6114646;23;20026;-81
2023/03/24 12:05:59;;;;;;;2.00;0.90;;;;;;;;;;6113571;23;20073;-80
2023/03/24 12:08:37;;;;;;;2.70;1.20;;;;;;;;;;6114034;23;20018;-81
2023/03/24 12:11:18;;;;;;;3.20;1.00;;;;;;;;;;6113067;23;20022;-81
2023/03/24 12:13:50;;;;;;;2.72;1.10;;;;;;;;;;6115638;23;20126;-81
2023/03/24 12:16:51;;;;;;;2.13;1.13;;;;;;;;;;6066292;23;20040;-80
2023/03/24 12:19:35;;;;;;;3.35;1.00;;;;;;;;;;6038707;23;20014;-81
2023/03/24 12:22:37;;;;;;;2.83;1.30;;;;;;;;;;6115709;23;20025;-81
2023/03/24 12:25:22;;;;;;;2.92;1.35;;;;;;;;;;6090092;23;20400;-80
2023/03/24 12:28:10;;;;;;;2.67;1.15;;;;;;;;;;6090284;23;20728;-82
2023/03/24 12:30:47;;;;;;;;;;;;;;;;;;6115929;23;20489;-80
2023/03/24 12:33:17;;;;;;;2.45;1.20;;;;;;;;;;6116338;23;19921;-80
2023/03/24 12:35:55;;;;;;;2.20;1.08;;;;;;;;;;6066173;23;20468;-81
2023/03/24 12:38:57;;;;;;;3.30;1.40;;;;;;;;;;6116866;23;20029;-80
2023/03/24 12:42:09;;;;;;;3.85;1.55;;;;;;;;;;6142784;23;20028;-79
2023/03/24 12:44:57;;;;;;;3.20;1.23;;;;;;;;;;6025325;23;20027;-80
2023/03/24 12:47:23;;;;;;;2.05;1.10;;;;;;;;;;5998306;23;20019;-80
2023/03/24 12:49:54;;;;;;;4.95;1.60;;;;;;;;;;6026661;23;20023;-80
2023/03/24 12:52:32;;;;;;;2.83;1.15;;;;;;;;;;6025964;23;20529;-81
2023/03/24 12:55:03;;;;;;;2.65;1.30;;;;;;;;;;6026344;23;20497;-80
2023/03/24 12:57:35;;;;;;;3.75;1.65;;;;;;;;;;6025295;23;20019;-80
2023/03/24 13:00:06;;;;;;;3.53;1.25;;;;;;;;;;6026661;23;20046;-80
2023/03/24 13:02:38;;;;;;;3.10;1.20;;;;;;;;;;6025699;23;20019;-80
2023/03/24 13:05:15;;;;;;;3.45;1.23;;;;;;;;;;6002538;23;20462;-80
2023/03/24 13:07:42;;;;;;;2.60;1.25;;;;;;;;;;6026416;23;20494;-80
2023/03/24 13:10:14;;;;;;;2.80;1.33;;;;;;;;;;6027434;23;20027;-80
2023/03/24 13:12:44;;;;;;;2.85;1.20;;;;;;;;;;6026030;23;20023;-80
2023/03/24 13:15:31;;;;;;;3.08;1.17;;;;;;;;;;6076617;23;20021;-80
2023/03/24 13:18:28;;;;;;;3.00;1.05;;;;;;;;;;6146132;23;20028;-79
2023/03/24 13:20:58;;;;;;;3.25;1.50;;;;;;;;;;6144207;23;20026;-80
2023/03/24 13:23:38;;;;;;;2.17;1.00;;;;;;;;;;6145516;23;20017;-80
2023/03/24 13:26:23;;;;;;;2.88;1.20;;;;;;;;;;6119209;23;20028;-80
2023/03/24 13:29:19;;;;;;;2.60;1.20;;;;;;;;;;6145942;23;20036;-80
2023/03/24 13:31:50;;;;;;;5.25;0.90;;;;;;;;;;6144617;23;20021;-80
2023/03/24 13:34:31;;;;;;;2.50;1.17;;;;;;;;;;6120175;23;20013;-80
2023/03/24 13:37:03;;;;;;;2.47;1.00;;;;;;;;;;6094628;23;20355;-80
2023/03/24 13:39:28;;;;;;;2.47;1.10;;;;;;;;;;6145274;23;20029;-80
2023/03/24 13:41:56;;;;;;;3.35;1.20;;;;;;;;;;6144839;23;20313;-80
2023/03/24 13:44:25;;;;;;;2.75;0.98;;;;;;;;;;6120027;23;20017;-80
2023/03/24 13:47:02;;;;;;;2.42;1.00;;;;;;;;;;6144906;23;20017;-80
2023/03/24 13:49:29;;;;;;;3.10;1.00;;;;;;;;;;6093576;23;20017;-80
2023/03/24 13:51:55;;;;;;;2.30;1.00;;;;;;;;;;6145033;23;20638;-80
2023/03/24 13:54:22;;;;;;;2.28;0.95;;;;;;;;;;6095594;23;20021;-80
2023/03/24 13:56:59;;;;;;;3.40;1.33;;;;;;;;;;6118954;23;20017;-80
2023/03/24 13:59:30;;;;;;;2.20;0.80;;;;;;;;;;6145366;23;20337;-81
2023/03/24 14:02:27;;;;;;;2.00;0.80;;;;;;;;;;6145394;23;20493;-80
2023/03/24 14:05:29;;;;;;;1.85;0.80;;;;;;;;;;6146142;23;20072;-81
2023/03/24 14:07:57;;;;;;;2.85;0.80;;;;;;;;;;6119155;23;20258;-80
2023/03/24 14:10:23;;;;;;;2.45;0.90;;;;;;;;;;6118120;23;20100;-80
2023/03/24 14:12:57;;;;;;;2.70;0.90;;;;;;;;;;6145702;23;20053;-81
2023/03/24 14:15:33;;;;;;;2.65;0.95;;;;;;;;;;6143715;23;20089;-80
2023/03/24 14:18:23;;;;;;;1.35;0.60;;;;;;;;;;6119145;23;20530;-79
2023/03/24 14:20:54;;;;;;;3.00;0.70;;;;;;;;;;6144763;23;20029;-80
2023/03/24 14:23:30;;;;;;;2.80;0.70;;;;;;;;;;6120788;23;20068;-80
2023/03/24 14:25:56;;;;;;;4.13;0.93;;;;;;;;;;6143795;23;20029;-80
2023/03/24 14:28:46;;;;;;;2.20;0.82;;;;;;;;;;6145953;23;20010;-80
2023/03/24 14:31:14;;;;;;;1.52;0.70;;;;;;;;;;6143622;23;20024;-80
2023/03/24 14:33:44;;;;;;;3.30;0.80;;;;;;;;;;6145533;23;20032;-79
2023/03/24 14:36:13;;;;;;;3.35;0.90;;;;;;;;;;6118401;23;20093;-80
2023/03/24 14:38:43;;;;;;;1.95;0.85;;;;;;;;;;6095414;23;20017;-80
2023/03/24 14:41:15;;;;;;;3.28;0.85;;;;;;;;;;6144863;23;20481;-79
2023/03/24 14:43:41;;;;;;;2.33;0.73;;;;;;;;;;6118842;23;20463;-80
2023/03/24 14:46:12;;;;;;;2.17;0.75;;;;;;;;;;6144885;23;20033;-77
2023/03/24 14:48:56;;;;;;;4.93;1.00;;;;;;;;;;6117817;23;20024;-76
2023/03/24 14:51:25;;;;;;;2.65;0.95;;;;;;;;;;6094002;23;20023;-76
2023/03/24 14:53:51;;;;;;;2.38;0.70;;;;;;;;;;6143974;23;20026;-78
2023/03/24 14:56:20;;;;;;;2.05;0.80;;;;;;;;;;6118022;23;20439;-78
2023/03/24 14:58:49;;;;;;;2.22;0.73;;;;;;;;;;6118480;23;20009;-76
2023/03/24 15:01:16;;;;;;;2.28;0.63;;;;;;;;;;6118884;23;20024;-76
2023/03/24 15:04:03;;;;;;;3.17;0.80;;;;;;;;;;6118637;23;20017;-76
2023/03/24 15:06:29;;;;;;;1.58;0.60;;;;;;;;;;6092990;23;20660;-77
2023/03/24 15:08:57;;;;;;;2.38;0.90;;;;;;;;;;6142593;23;20024;-78
2023/03/24 15:11:25;;;;;;;3.63;0.82;;;;;;;;;;6118563;23;20022;-77
2023/03/24 15:13:56;;;;;;;1.88;0.90;;;;;;;;;;6119753;23;20025;-77